Avon, Illinois
Current Conditions -  °F | °C
As of 5:55 PM on Wednesday 22 Oct 2014 (Local Time) from KMQB Reporting Station
Clear Clear  
Wind Chill: 57°   Ceiling: Unl
Heat Index: 57°   Visibility: 10mi
Dew Point: 39°   Wind: 7mph
Humidity: 52%   Direction: 130°SE
Pressure: 30.22"   Gusts: NA
Location:  40.66°N, 90.43°W
Report Text: KMQB 222255Z AUTO 13006KT 10SM CLR 14/04 A3022 RMK AO2 T01380041
Loading
Personal Weather Stations






























Interactive Weather Map
Tropical Storm Tracking
New forecast layout! Learn more

10-Day Weather Forecast

Advertisements
Track Severe Weather on mobile